sensor_id;sensor_type;location;lat;lon;timestamp;temperature;humidity
2729;DHT22;1372;47.956;7.830;2023-03-12T00:00:23;3.30;99.90
2729;DHT22;1372;47.956;7.830;2023-03-12T00:02:57;3.50;99.90
2729;DHT22;1372;47.956;7.830;2023-03-12T00:05:31;3.40;99.90
2729;DHT22;1372;47.956;7.830;2023-03-12T00:08:05;3.50;99.90
2729;DHT22;1372;47.956;7.830;2023-03-12T00:10:38;3.50;99.90
2729;DHT22;1372;47.956;7.830;2023-03-12T00:13:11;3.50;99.90
2729;DHT22;1372;47.956;7.830;2023-03-12T00:15:45;3.50;99.90
2729;DHT22;1372;47.956;7.830;2023-03-12T00:18:22;3.50;99.90
2729;DHT22;1372;47.956;7.830;2023-03-12T00:20:55;3.50;99.90
2729;DHT22;1372;47.956;7.830;2023-03-12T00:23:29;3.50;99.90
2729;DHT22;1372;47.956;7.830;2023-03-12T00:26:05;3.50;99.90
2729;DHT22;1372;47.956;7.830;2023-03-12T00:28:40;3.50;99.90
2729;DHT22;1372;47.956;7.830;2023-03-12T00:31:19;3.60;99.90
2729;DHT22;1372;47.956;7.830;2023-03-12T00:33:53;3.60;99.90
2729;DHT22;1372;47.956;7.830;2023-03-12T00:36:29;3.60;99.90
2729;DHT22;1372;47.956;7.830;2023-03-12T00:39:03;3.70;99.90
2729;DHT22;1372;47.956;7.830;2023-03-12T00:41:36;3.80;99.90
2729;DHT22;1372;47.956;7.830;2023-03-12T00:44:09;3.80;99.90
2729;DHT22;1372;47.956;7.830;2023-03-12T00:46:45;3.90;99.90
2729;DHT22;1372;47.956;7.830;2023-03-12T00:49:20;3.90;99.90
2729;DHT22;1372;47.956;7.830;2023-03-12T00:51:53;3.80;99.90
2729;DHT22;1372;47.956;7.830;2023-03-12T00:54:27;3.80;99.90
2729;DHT22;1372;47.956;7.830;2023-03-12T00:57:00;3.80;99.90
2729;DHT22;1372;47.956;7.830;2023-03-12T00:59:34;3.90;99.90
2729;DHT22;1372;47.956;7.830;2023-03-12T01:02:11;3.90;99.90
2729;DHT22;1372;47.956;7.830;2023-03-12T01:04:44;4.00;99.90
2729;DHT22;1372;47.956;7.830;2023-03-12T01:07:17;4.00;99.90
2729;DHT22;1372;47.956;7.830;2023-03-12T01:09:51;4.00;99.90
2729;DHT22;1372;47.956;7.830;2023-03-12T01:12:24;4.00;99.90
2729;DHT22;1372;47.956;7.830;2023-03-12T01:14:58;3.90;99.90
2729;DHT22;1372;47.956;7.830;2023-03-12T01:17:35;3.90;99.90
2729;DHT22;1372;47.956;7.830;2023-03-12T01:20:10;3.90;99.90
2729;DHT22;1372;47.956;7.830;2023-03-12T01:22:43;3.80;99.90
2729;DHT22;1372;47.956;7.830;2023-03-12T01:25:16;4.00;99.90
2729;DHT22;1372;47.956;7.830;2023-03-12T01:27:50;3.90;99.90
2729;DHT22;1372;47.956;7.830;2023-03-12T01:30:25;3.90;99.90
2729;DHT22;1372;47.956;7.830;2023-03-12T01:32:59;4.00;99.90
2729;DHT22;1372;47.956;7.830;2023-03-12T01:35:36;4.00;99.90
2729;DHT22;1372;47.956;7.830;2023-03-12T01:38:13;4.10;99.90
2729;DHT22;1372;47.956;7.830;2023-03-12T01:40:46;4.10;99.90
2729;DHT22;1372;47.956;7.830;2023-03-12T01:43:24;4.10;99.90
2729;DHT22;1372;47.956;7.830;2023-03-12T01:46:09;4.10;99.90
2729;DHT22;1372;47.956;7.830;2023-03-12T01:48:58;4.20;99.90
2729;DHT22;1372;47.956;7.830;2023-03-12T01:51:36;4.30;99.90
2729;DHT22;1372;47.956;7.830;2023-03-12T01:54:15;4.20;99.90
2729;DHT22;1372;47.956;7.830;2023-03-12T01:56:50;4.30;99.90
2729;DHT22;1372;47.956;7.830;2023-03-12T01:59:27;4.50;99.90
2729;DHT22;1372;47.956;7.830;2023-03-12T02:02:03;4.70;99.90
2729;DHT22;1372;47.956;7.830;2023-03-12T02:04:39;4.80;99.90
2729;DHT22;1372;47.956;7.830;2023-03-12T02:07:13;4.90;99.90
2729;DHT22;1372;47.956;7.830;2023-03-12T02:09:48;4.90;99.90
2729;DHT22;1372;47.956;7.830;2023-03-12T02:12:20;5.00;99.90
2729;DHT22;1372;47.956;7.830;2023-03-12T02:14:53;4.90;99.90
2729;DHT22;1372;47.956;7.830;2023-03-12T02:17:26;4.90;99.90
2729;DHT22;1372;47.956;7.830;2023-03-12T02:20:08;4.90;99.90
2729;DHT22;1372;47.956;7.830;2023-03-12T02:22:59;4.90;99.90
2729;DHT22;1372;47.956;7.830;2023-03-12T02:25:38;4.80;99.90
2729;DHT22;1372;47.956;7.830;2023-03-12T02:28:15;4.80;99.90
2729;DHT22;1372;47.956;7.830;2023-03-12T02:30:52;4.80;99.90
2729;DHT22;1372;47.956;7.830;2023-03-12T02:33:29;4.80;99.90
2729;DHT22;1372;47.956;7.830;2023-03-12T02:36:04;4.80;99.90
2729;DHT22;1372;47.956;7.830;2023-03-12T02:38:41;4.80;99.90
2729;DHT22;1372;47.956;7.830;2023-03-12T02:41:19;4.70;99.90
2729;DHT22;1372;47.956;7.830;2023-03-12T02:43:57;4.70;99.90
2729;DHT22;1372;47.956;7.830;2023-03-12T02:46:35;4.70;99.90
2729;DHT22;1372;47.956;7.830;2023-03-12T02:49:10;4.80;99.90
2729;DHT22;1372;47.956;7.830;2023-03-12T02:51:44;4.80;99.90
2729;DHT22;1372;47.956;7.830;2023-03-12T02:54:18;4.90;99.90
2729;DHT22;1372;47.956;7.830;2023-03-12T02:56:55;5.20;99.90
2729;DHT22;1372;47.956;7.830;2023-03-12T02:59:27;5.30;99.90
2729;DHT22;1372;47.956;7.830;2023-03-12T03:02:02;5.30;99.90
2729;DHT22;1372;47.956;7.830;2023-03-12T03:04:35;5.30;99.90
2729;DHT22;1372;47.956;7.830;2023-03-12T03:07:08;5.20;99.90
2729;DHT22;1372;47.956;7.830;2023-03-12T03:09:40;5.10;99.90
2729;DHT22;1372;47.956;7.830;2023-03-12T03:12:16;5.20;99.90
2729;DHT22;1372;47.956;7.830;2023-03-12T03:14:48;5.30;99.90
2729;DHT22;1372;47.956;7.830;2023-03-12T03:17:24;5.30;99.90
2729;DHT22;1372;47.956;7.830;2023-03-12T03:19:58;5.40;99.90
2729;DHT22;1372;47.956;7.830;2023-03-12T03:22:36;5.50;99.90
2729;DHT22;1372;47.956;7.830;2023-03-12T03:25:10;5.40;99.90
2729;DHT22;1372;47.956;7.830;2023-03-12T03:27:44;5.60;99.90
2729;DHT22;1372;47.956;7.830;2023-03-12T03:30:19;5.80;99.90
2729;DHT22;1372;47.956;7.830;2023-03-12T03:32:51;6.00;99.90
2729;DHT22;1372;47.956;7.830;2023-03-12T03:35:25;6.00;99.90
2729;DHT22;1372;47.956;7.830;2023-03-12T03:37:58;6.20;99.90
2729;DHT22;1372;47.956;7.830;2023-03-12T03:40:30;6.30;99.90
2729;DHT22;1372;47.956;7.830;2023-03-12T03:43:09;6.40;99.90
2729;DHT22;1372;47.956;7.830;2023-03-12T03:45:42;6.70;99.90
2729;DHT22;1372;47.956;7.830;2023-03-12T03:48:14;6.90;99.90
2729;DHT22;1372;47.956;7.830;2023-03-12T03:50:47;6.90;99.90
2729;DHT22;1372;47.956;7.830;2023-03-12T03:53:21;7.00;99.90
2729;DHT22;1372;47.956;7.830;2023-03-12T03:55:54;7.10;99.90
2729;DHT22;1372;47.956;7.830;2023-03-12T03:58:29;7.20;99.90
2729;DHT22;1372;47.956;7.830;2023-03-12T04:01:02;7.30;99.90
2729;DHT22;1372;47.956;7.830;2023-03-12T04:03:35;7.40;99.90
2729;DHT22;1372;47.956;7.830;2023-03-12T04:06:09;7.50;99.90
2729;DHT22;1372;47.956;7.830;2023-03-12T04:08:46;7.50;99.90
2729;DHT22;1372;47.956;7.830;2023-03-12T04:11:21;7.60;99.90
2729;DHT22;1372;47.956;7.830;2023-03-12T04:13:57;7.70;99.90
2729;DHT22;1372;47.956;7.830;2023-03-12T04:16:29;7.70;99.90
2729;DHT22;1372;47.956;7.830;2023-03-12T04:19:03;7.70;99.90
2729;DHT22;1372;47.956;7.830;2023-03-12T04:21:38;7.60;99.90
2729;DHT22;1372;47.956;7.830;2023-03-12T04:24:14;7.50;99.90
2729;DHT22;1372;47.956;7.830;2023-03-12T04:26:50;7.40;99.90
2729;DHT22;1372;47.956;7.830;2023-03-12T04:29:25;7.30;99.90
2729;DHT22;1372;47.956;7.830;2023-03-12T04:31:59;7.30;99.90
2729;DHT22;1372;47.956;7.830;2023-03-12T04:34:31;7.30;99.90
2729;DHT22;1372;47.956;7.830;2023-03-12T04:37:05;7.30;99.90
2729;DHT22;1372;47.956;7.830;2023-03-12T04:39:40;7.30;99.90
2729;DHT22;1372;47.956;7.830;2023-03-12T04:42:14;7.30;99.90
2729;DHT22;1372;47.956;7.830;2023-03-12T04:44:50;7.30;99.90
2729;DHT22;1372;47.956;7.830;2023-03-12T04:47:25;7.30;99.90
2729;DHT22;1372;47.956;7.830;2023-03-12T04:49:59;7.30;99.90
2729;DHT22;1372;47.956;7.830;2023-03-12T04:52:31;7.30;99.90
2729;DHT22;1372;47.956;7.830;2023-03-12T04:55:07;7.40;99.90
2729;DHT22;1372;47.956;7.830;2023-03-12T04:57:41;7.60;99.90
2729;DHT22;1372;47.956;7.830;2023-03-12T05:00:17;7.60;99.90
2729;DHT22;1372;47.956;7.830;2023-03-12T05:02:50;7.70;99.90
2729;DHT22;1372;47.956;7.830;2023-03-12T05:05:23;7.70;99.90
2729;DHT22;1372;47.956;7.830;2023-03-12T05:07:55;7.80;99.90
2729;DHT22;1372;47.956;7.830;2023-03-12T05:10:28;8.00;99.90
2729;DHT22;1372;47.956;7.830;2023-03-12T05:13:01;8.00;99.90
2729;DHT22;1372;47.956;7.830;2023-03-12T05:15:38;8.10;99.90
2729;DHT22;1372;47.956;7.830;2023-03-12T05:18:10;8.10;99.90
2729;DHT22;1372;47.956;7.830;2023-03-12T05:20:46;8.00;99.90
2729;DHT22;1372;47.956;7.830;2023-03-12T05:23:18;8.00;99.90
2729;DHT22;1372;47.956;7.830;2023-03-12T05:25:49;8.10;99.90
2729;DHT22;1372;47.956;7.830;2023-03-12T05:28:26;8.00;99.90
2729;DHT22;1372;47.956;7.830;2023-03-12T05:31:00;8.10;99.90
2729;DHT22;1372;47.956;7.830;2023-03-12T05:33:40;8.10;99.90
2729;DHT22;1372;47.956;7.830;2023-03-12T05:36:13;8.10;99.90
2729;DHT22;1372;47.956;7.830;2023-03-12T05:38:45;8.20;99.90
2729;DHT22;1372;47.956;7.830;2023-03-12T05:41:19;8.20;99.90
2729;DHT22;1372;47.956;7.830;2023-03-12T05:43:52;8.30;99.90
2729;DHT22;1372;47.956;7.830;2023-03-12T05:46:26;8.30;99.90
2729;DHT22;1372;47.956;7.830;2023-03-12T05:48:57;8.30;99.90
2729;DHT22;1372;47.956;7.830;2023-03-12T05:51:33;8.30;99.90
2729;DHT22;1372;47.956;7.830;2023-03-12T05:54:06;8.40;99.90
2729;DHT22;1372;47.956;7.830;2023-03-12T05:56:38;8.40;99.90
2729;DHT22;1372;47.956;7.830;2023-03-12T05:59:14;8.40;99.90
2729;DHT22;1372;47.956;7.830;2023-03-12T06:01:49;8.40;99.90
2729;DHT22;1372;47.956;7.830;2023-03-12T06:04:22;8.40;99.90
2729;DHT22;1372;47.956;7.830;2023-03-12T06:06:52;8.40;99.90
2729;DHT22;1372;47.956;7.830;2023-03-12T06:09:23;8.50;99.90
2729;DHT22;1372;47.956;7.830;2023-03-12T06:11:54;8.60;99.90
2729;DHT22;1372;47.956;7.830;2023-03-12T06:14:27;8.60;99.90
2729;DHT22;1372;47.956;7.830;2023-03-12T06:16:59;8.60;99.90
2729;DHT22;1372;47.956;7.830;2023-03-12T06:19:37;8.60;99.90
2729;DHT22;1372;47.956;7.830;2023-03-12T06:22:09;8.70;99.90
2729;DHT22;1372;47.956;7.830;2023-03-12T06:24:41;8.70;99.90
2729;DHT22;1372;47.956;7.830;2023-03-12T06:27:15;8.70;99.90
2729;DHT22;1372;47.956;7.830;2023-03-12T06:29:47;8.70;99.90
2729;DHT22;1372;47.956;7.830;2023-03-12T06:32:21;8.80;99.90
2729;DHT22;1372;47.956;7.830;2023-03-12T06:34:51;8.80;99.90
2729;DHT22;1372;47.956;7.830;2023-03-12T06:37:21;8.70;99.90
2729;DHT22;1372;47.956;7.830;2023-03-12T06:39:54;8.70;99.90
2729;DHT22;1372;47.956;7.830;2023-03-12T06:42:27;8.70;99.90
2729;DHT22;1372;47.956;7.830;2023-03-12T06:44:57;8.70;99.90
2729;DHT22;1372;47.956;7.830;2023-03-12T06:47:28;8.70;99.90
2729;DHT22;1372;47.956;7.830;2023-03-12T06:49:59;8.70;99.90
2729;DHT22;1372;47.956;7.830;2023-03-12T06:52:30;8.70;99.90
2729;DHT22;1372;47.956;7.830;2023-03-12T06:55:04;8.80;99.90
2729;DHT22;1372;47.956;7.830;2023-03-12T06:57:34;8.90;99.90
2729;DHT22;1372;47.956;7.830;2023-03-12T07:00:05;9.00;99.90
2729;DHT22;1372;47.956;7.830;2023-03-12T07:02:37;9.00;99.90
2729;DHT22;1372;47.956;7.830;2023-03-12T07:05:07;9.00;99.90
2729;DHT22;1372;47.956;7.830;2023-03-12T07:07:38;9.00;99.90
2729;DHT22;1372;47.956;7.830;2023-03-12T07:10:09;9.10;99.90
2729;DHT22;1372;47.956;7.830;2023-03-12T07:12:39;9.20;99.90
2729;DHT22;1372;47.956;7.830;2023-03-12T07:15:11;9.20;99.90
2729;DHT22;1372;47.956;7.830;2023-03-12T07:17:45;9.20;99.90
2729;DHT22;1372;47.956;7.830;2023-03-12T07:20:17;9.20;99.90
2729;DHT22;1372;47.956;7.830;2023-03-12T07:22:47;9.20;99.90
2729;DHT22;1372;47.956;7.830;2023-03-12T07:25:24;9.30;99.90
2729;DHT22;1372;47.956;7.830;2023-03-12T07:27:54;9.30;99.90
2729;DHT22;1372;47.956;7.830;2023-03-12T07:30:23;9.30;99.90
2729;DHT22;1372;47.956;7.830;2023-03-12T07:32:54;9.30;99.90
2729;DHT22;1372;47.956;7.830;2023-03-12T07:35:23;9.40;99.90
2729;DHT22;1372;47.956;7.830;2023-03-12T07:37:56;9.40;99.90
2729;DHT22;1372;47.956;7.830;2023-03-12T07:40:27;9.40;99.90
2729;DHT22;1372;47.956;7.830;2023-03-12T07:42:57;9.50;99.90
2729;DHT22;1372;47.956;7.830;2023-03-12T07:45:27;9.50;99.90
2729;DHT22;1372;47.956;7.830;2023-03-12T07:47:59;9.50;99.90
2729;DHT22;1372;47.956;7.830;2023-03-12T07:50:29;9.50;99.90
2729;DHT22;1372;47.956;7.830;2023-03-12T07:52:59;9.50;99.90
2729;DHT22;1372;47.956;7.830;2023-03-12T07:55:29;9.50;99.90
2729;DHT22;1372;47.956;7.830;2023-03-12T07:58:00;9.60;99.90
2729;DHT22;1372;47.956;7.830;2023-03-12T08:00:31;9.60;99.90
2729;DHT22;1372;47.956;7.830;2023-03-12T08:03:02;9.60;99.90
2729;DHT22;1372;47.956;7.830;2023-03-12T08:05:33;9.60;99.90
2729;DHT22;1372;47.956;7.830;2023-03-12T08:08:01;9.60;99.90
2729;DHT22;1372;47.956;7.830;2023-03-12T08:10:31;9.70;99.90
2729;DHT22;1372;47.956;7.830;2023-03-12T08:13:02;9.80;99.90
2729;DHT22;1372;47.956;7.830;2023-03-12T08:15:32;9.80;99.90
2729;DHT22;1372;47.956;7.830;2023-03-12T08:18:03;9.90;99.90
2729;DHT22;1372;47.956;7.830;2023-03-12T08:20:33;9.90;99.90
2729;DHT22;1372;47.956;7.830;2023-03-12T08:23:05;9.80;99.90
2729;DHT22;1372;47.956;7.830;2023-03-12T08:25:35;9.80;99.90
2729;DHT22;1372;47.956;7.830;2023-03-12T08:28:05;9.80;99.90
2729;DHT22;1372;47.956;7.830;2023-03-12T08:30:34;9.80;99.90
2729;DHT22;1372;47.956;7.830;2023-03-12T08:33:06;9.90;99.90
2729;DHT22;1372;47.956;7.830;2023-03-12T08:35:38;9.90;99.90
2729;DHT22;1372;47.956;7.830;2023-03-12T08:38:07;10.00;99.90
2729;DHT22;1372;47.956;7.830;2023-03-12T08:40:39;10.10;99.90
2729;DHT22;1372;47.956;7.830;2023-03-12T08:43:09;10.20;99.90
2729;DHT22;1372;47.956;7.830;2023-03-12T08:45:39;10.20;99.90
2729;DHT22;1372;47.956;7.830;2023-03-12T08:48:14;10.30;99.90
2729;DHT22;1372;47.956;7.830;2023-03-12T08:50:53;10.20;99.90
2729;DHT22;1372;47.956;7.830;2023-03-12T08:53:23;10.30;99.90
2729;DHT22;1372;47.956;7.830;2023-03-12T08:55:56;10.30;99.90
2729;DHT22;1372;47.956;7.830;2023-03-12T08:58:27;10.30;99.90
2729;DHT22;1372;47.956;7.830;2023-03-12T09:01:00;10.30;99.90
2729;DHT22;1372;47.956;7.830;2023-03-12T09:03:35;10.30;99.90
2729;DHT22;1372;47.956;7.830;2023-03-12T09:06:09;10.30;99.90
2729;DHT22;1372;47.956;7.830;2023-03-12T09:08:45;10.20;99.90
2729;DHT22;1372;47.956;7.830;2023-03-12T09:11:20;10.30;99.90
2729;DHT22;1372;47.956;7.830;2023-03-12T09:13:51;10.30;99.90
2729;DHT22;1372;47.956;7.830;2023-03-12T09:16:52;10.30;99.90
2729;DHT22;1372;47.956;7.830;2023-03-12T09:19:54;10.30;99.90
2729;DHT22;1372;47.956;7.830;2023-03-12T09:22:38;10.30;99.90
2729;DHT22;1372;47.956;7.830;2023-03-12T09:25:35;10.30;99.90
2729;DHT22;1372;47.956;7.830;2023-03-12T09:28:47;10.30;99.90
2729;DHT22;1372;47.956;7.830;2023-03-12T09:32:13;10.40;99.90
2729;DHT22;1372;47.956;7.830;2023-03-12T09:35:18;10.50;99.90
2729;DHT22;1372;47.956;7.830;2023-03-12T09:38:11;10.60;99.90
2729;DHT22;1372;47.956;7.830;2023-03-12T09:40:58;10.60;99.90
2729;DHT22;1372;47.956;7.830;2023-03-12T09:43:37;10.70;99.90
2729;DHT22;1372;47.956;7.830;2023-03-12T09:46:14;10.80;99.90
2729;DHT22;1372;47.956;7.830;2023-03-12T09:48:50;10.90;99.90
2729;DHT22;1372;47.956;7.830;2023-03-12T09:51:29;10.80;99.90
2729;DHT22;1372;47.956;7.830;2023-03-12T09:54:07;10.80;99.90
2729;DHT22;1372;47.956;7.830;2023-03-12T09:56:46;10.80;99.90
2729;DHT22;1372;47.956;7.830;2023-03-12T09:59:20;10.80;99.90
2729;DHT22;1372;47.956;7.830;2023-03-12T10:01:52;10.80;99.90
2729;DHT22;1372;47.956;7.830;2023-03-12T10:04:36;10.80;99.90
2729;DHT22;1372;47.956;7.830;2023-03-12T10:07:33;10.90;99.90
2729;DHT22;1372;47.956;7.830;2023-03-12T10:10:19;11.00;99.90
2729;DHT22;1372;47.956;7.830;2023-03-12T10:13:10;11.00;99.90
2729;DHT22;1372;47.956;7.830;2023-03-12T10:15:54;11.00;99.90
2729;DHT22;1372;47.956;7.830;2023-03-12T10:18:45;11.00;99.90
2729;DHT22;1372;47.956;7.830;2023-03-12T10:21:33;11.10;99.90
2729;DHT22;1372;47.956;7.830;2023-03-12T10:24:35;11.10;99.90
2729;DHT22;1372;47.956;7.830;2023-03-12T10:27:14;11.10;99.90
2729;DHT22;1372;47.956;7.830;2023-03-12T10:29:49;11.00;99.90
2729;DHT22;1372;47.956;7.830;2023-03-12T10:32:25;11.00;99.90
2729;DHT22;1372;47.956;7.830;2023-03-12T10:35:06;11.00;99.90
2729;DHT22;1372;47.956;7.830;2023-03-12T10:37:47;11.00;99.90
2729;DHT22;1372;47.956;7.830;2023-03-12T10:40:23;11.00;99.90
2729;DHT22;1372;47.956;7.830;2023-03-12T10:42:57;11.10;99.90
2729;DHT22;1372;47.956;7.830;2023-03-12T10:45:35;11.20;99.90
2729;DHT22;1372;47.956;7.830;2023-03-12T10:48:21;11.30;99.90
2729;DHT22;1372;47.956;7.830;2023-03-12T10:51:02;11.30;99.90
2729;DHT22;1372;47.956;7.830;2023-03-12T10:53:40;11.30;99.90
2729;DHT22;1372;47.956;7.830;2023-03-12T10:56:19;11.50;99.90
2729;DHT22;1372;47.956;7.830;2023-03-12T10:58:52;11.50;99.90
2729;DHT22;1372;47.956;7.830;2023-03-12T11:01:29;11.60;99.90
2729;DHT22;1372;47.956;7.830;2023-03-12T11:04:16;11.60;99.90
2729;DHT22;1372;47.956;7.830;2023-03-12T11:07:04;11.60;99.90
2729;DHT22;1372;47.956;7.830;2023-03-12T11:10:12;11.60;99.90
2729;DHT22;1372;47.956;7.830;2023-03-12T11:13:23;11.60;99.90
2729;DHT22;1372;47.956;7.830;2023-03-12T11:16:01;11.60;99.90
2729;DHT22;1372;47.956;7.830;2023-03-12T11:18:37;11.70;99.90
2729;DHT22;1372;47.956;7.830;2023-03-12T11:21:17;11.70;99.90
2729;DHT22;1372;47.956;7.830;2023-03-12T11:24:08;11.80;99.90
2729;DHT22;1372;47.956;7.830;2023-03-12T11:26:48;11.80;99.90
2729;DHT22;1372;47.956;7.830;2023-03-12T11:29:38;11.80;99.90
2729;DHT22;1372;47.956;7.830;2023-03-12T11:32:17;11.90;99.90
2729;DHT22;1372;47.956;7.830;2023-03-12T11:34:52;12.00;99.90
2729;DHT22;1372;47.956;7.830;2023-03-12T11:37:32;12.00;99.90
2729;DHT22;1372;47.956;7.830;2023-03-12T11:40:42;12.00;99.90
2729;DHT22;1372;47.956;7.830;2023-03-12T11:43:35;12.10;99.90
2729;DHT22;1372;47.956;7.830;2023-03-12T11:46:21;12.10;99.90
2729;DHT22;1372;47.956;7.830;2023-03-12T11:49:10;12.20;99.90
2729;DHT22;1372;47.956;7.830;2023-03-12T11:51:56;12.30;99.90
2729;DHT22;1372;47.956;7.830;2023-03-12T11:54:51;12.50;99.90
2729;DHT22;1372;47.956;7.830;2023-03-12T11:57:44;12.70;99.90
2729;DHT22;1372;47.956;7.830;2023-03-12T12:00:28;12.90;99.90
2729;DHT22;1372;47.956;7.830;2023-03-12T12:06:18;13.00;99.90
2729;DHT22;1372;47.956;7.830;2023-03-12T12:09:05;13.00;99.90
2729;DHT22;1372;47.956;7.830;2023-03-12T12:11:50;13.00;99.90
2729;DHT22;1372;47.956;7.830;2023-03-12T12:14:44;13.00;99.90
2729;DHT22;1372;47.956;7.830;2023-03-12T12:17:43;13.00;99.90
2729;DHT22;1372;47.956;7.830;2023-03-12T12:20:36;13.10;99.90
2729;DHT22;1372;47.956;7.830;2023-03-12T12:23:17;13.00;99.90
2729;DHT22;1372;47.956;7.830;2023-03-12T12:26:13;12.90;99.90
2729;DHT22;1372;47.956;7.830;2023-03-12T12:29:00;13.00;99.90
2729;DHT22;1372;47.956;7.830;2023-03-12T12:31:52;13.10;99.90
2729;DHT22;1372;47.956;7.830;2023-03-12T12:34:43;13.10;99.90
2729;DHT22;1372;47.956;7.830;2023-03-12T12:37:44;13.10;99.90
2729;DHT22;1372;47.956;7.830;2023-03-12T12:40:22;13.20;99.90
2729;DHT22;1372;47.956;7.830;2023-03-12T12:43:03;13.40;99.90
2729;DHT22;1372;47.956;7.830;2023-03-12T12:45:44;13.60;99.90
2729;DHT22;1372;47.956;7.830;2023-03-12T12:48:21;13.60;99.90
2729;DHT22;1372;47.956;7.830;2023-03-12T12:50:57;13.50;99.90
2729;DHT22;1372;47.956;7.830;2023-03-12T12:53:35;13.40;99.90
2729;DHT22;1372;47.956;7.830;2023-03-12T12:56:18;13.20;99.90
2729;DHT22;1372;47.956;7.830;2023-03-12T12:59:25;13.10;99.90
2729;DHT22;1372;47.956;7.830;2023-03-12T13:02:02;13.10;99.90
2729;DHT22;1372;47.956;7.830;2023-03-12T13:04:43;13.20;99.90
2729;DHT22;1372;47.956;7.830;2023-03-12T13:07:32;13.20;99.90
2729;DHT22;1372;47.956;7.830;2023-03-12T13:10:08;13.20;99.90
2729;DHT22;1372;47.956;7.830;2023-03-12T13:13:23;13.20;99.90
2729;DHT22;1372;47.956;7.830;2023-03-12T13:16:17;13.10;99.90
2729;DHT22;1372;47.956;7.830;2023-03-12T13:19:00;13.30;99.90
2729;DHT22;1372;47.956;7.830;2023-03-12T13:21:49;13.20;99.90
2729;DHT22;1372;47.956;7.830;2023-03-12T13:24:30;13.30;99.90
2729;DHT22;1372;47.956;7.830;2023-03-12T13:27:13;13.30;99.90
2729;DHT22;1372;47.956;7.830;2023-03-12T13:33:17;13.20;99.90
2729;DHT22;1372;47.956;7.830;2023-03-12T13:36:08;13.20;99.90
2729;DHT22;1372;47.956;7.830;2023-03-12T13:38:56;13.20;99.90
2729;DHT22;1372;47.956;7.830;2023-03-12T13:41:33;13.40;99.90
2729;DHT22;1372;47.956;7.830;2023-03-12T13:44:35;13.60;99.90
2729;DHT22;1372;47.956;7.830;2023-03-12T13:47:20;13.80;99.90
2729;DHT22;1372;47.956;7.830;2023-03-12T13:49:57;13.70;99.90
2729;DHT22;1372;47.956;7.830;2023-03-12T13:52:45;13.60;99.90
2729;DHT22;1372;47.956;7.830;2023-03-12T13:55:21;13.70;99.90
2729;DHT22;1372;47.956;7.830;2023-03-12T13:57:56;13.70;99.90
2729;DHT22;1372;47.956;7.830;2023-03-12T14:00:37;13.80;99.90
2729;DHT22;1372;47.956;7.830;2023-03-12T14:03:14;13.70;99.90
2729;DHT22;1372;47.956;7.830;2023-03-12T14:05:51;13.60;99.90
2729;DHT22;1372;47.956;7.830;2023-03-12T14:08:41;13.80;99.90
2729;DHT22;1372;47.956;7.830;2023-03-12T14:11:33;14.10;99.90
2729;DHT22;1372;47.956;7.830;2023-03-12T14:17:38;14.50;99.90
2729;DHT22;1372;47.956;7.830;2023-03-12T14:20:13;14.60;99.90
2729;DHT22;1372;47.956;7.830;2023-03-12T14:22:50;14.60;99.90
2729;DHT22;1372;47.956;7.830;2023-03-12T14:25:31;14.80;99.90
2729;DHT22;1372;47.956;7.830;2023-03-12T14:28:08;14.80;99.90
2729;DHT22;1372;47.956;7.830;2023-03-12T14:30:43;14.90;99.90
2729;DHT22;1372;47.956;7.830;2023-03-12T14:33:32;15.10;99.90
2729;DHT22;1372;47.956;7.830;2023-03-12T14:36:08;15.10;99.90
2729;DHT22;1372;47.956;7.830;2023-03-12T14:38:44;15.20;99.90
2729;DHT22;1372;47.956;7.830;2023-03-12T14:41:18;15.10;99.90
2729;DHT22;1372;47.956;7.830;2023-03-12T14:43:52;15.00;99.90
2729;DHT22;1372;47.956;7.830;2023-03-12T14:46:23;14.80;99.90
2729;DHT22;1372;47.956;7.830;2023-03-12T14:48:58;14.70;99.90
2729;DHT22;1372;47.956;7.830;2023-03-12T14:51:29;14.70;99.90
2729;DHT22;1372;47.956;7.830;2023-03-12T14:54:04;14.50;99.90
2729;DHT22;1372;47.956;7.830;2023-03-12T14:56:46;14.30;99.90
2729;DHT22;1372;47.956;7.830;2023-03-12T14:59:22;14.20;99.90
2729;DHT22;1372;47.956;7.830;2023-03-12T15:01:59;14.10;99.90
2729;DHT22;1372;47.956;7.830;2023-03-12T15:04:34;14.10;99.90
2729;DHT22;1372;47.956;7.830;2023-03-12T15:07:05;14.00;99.90
2729;DHT22;1372;47.956;7.830;2023-03-12T15:09:41;14.00;99.90
2729;DHT22;1372;47.956;7.830;2023-03-12T15:12:18;14.00;99.90
2729;DHT22;1372;47.956;7.830;2023-03-12T15:14:54;14.00;99.90
2729;DHT22;1372;47.956;7.830;2023-03-12T15:17:32;13.90;99.90
2729;DHT22;1372;47.956;7.830;2023-03-12T15:20:06;13.90;99.90
2729;DHT22;1372;47.956;7.830;2023-03-12T15:22:40;13.90;99.90
2729;DHT22;1372;47.956;7.830;2023-03-12T15:25:21;14.00;99.90
2729;DHT22;1372;47.956;7.830;2023-03-12T15:28:06;14.00;99.90
2729;DHT22;1372;47.956;7.830;2023-03-12T15:30:42;14.00;99.90
2729;DHT22;1372;47.956;7.830;2023-03-12T15:33:22;14.00;99.90
2729;DHT22;1372;47.956;7.830;2023-03-12T15:36:02;14.00;99.90
2729;DHT22;1372;47.956;7.830;2023-03-12T15:38:36;14.00;99.90
2729;DHT22;1372;47.956;7.830;2023-03-12T15:41:17;14.00;99.90
2729;DHT22;1372;47.956;7.830;2023-03-12T15:43:52;13.90;99.90
2729;DHT22;1372;47.956;7.830;2023-03-12T15:46:24;13.90;99.90
2729;DHT22;1372;47.956;7.830;2023-03-12T15:48:58;13.90;99.90
2729;DHT22;1372;47.956;7.830;2023-03-12T15:51:33;14.00;99.90
2729;DHT22;1372;47.956;7.830;2023-03-12T15:54:18;14.00;99.90
2729;DHT22;1372;47.956;7.830;2023-03-12T15:56:52;14.00;99.90
2729;DHT22;1372;47.956;7.830;2023-03-12T15:59:23;14.00;99.90
2729;DHT22;1372;47.956;7.830;2023-03-12T16:01:55;14.10;99.90
2729;DHT22;1372;47.956;7.830;2023-03-12T16:04:25;14.10;99.90
2729;DHT22;1372;47.956;7.830;2023-03-12T16:06:57;14.10;99.90
2729;DHT22;1372;47.956;7.830;2023-03-12T16:09:30;14.20;99.90
2729;DHT22;1372;47.956;7.830;2023-03-12T16:12:05;14.20;99.90
2729;DHT22;1372;47.956;7.830;2023-03-12T16:14:39;14.10;99.90
2729;DHT22;1372;47.956;7.830;2023-03-12T16:17:18;14.10;99.90
2729;DHT22;1372;47.956;7.830;2023-03-12T16:19:51;14.00;99.90
2729;DHT22;1372;47.956;7.830;2023-03-12T16:22:24;14.10;99.90
2729;DHT22;1372;47.956;7.830;2023-03-12T16:24:53;14.10;99.90
2729;DHT22;1372;47.956;7.830;2023-03-12T16:27:23;14.10;99.90
2729;DHT22;1372;47.956;7.830;2023-03-12T16:30:01;14.00;99.90
2729;DHT22;1372;47.956;7.830;2023-03-12T16:32:35;13.90;99.90
2729;DHT22;1372;47.956;7.830;2023-03-12T16:35:15;14.00;99.90
2729;DHT22;1372;47.956;7.830;2023-03-12T16:37:50;14.00;99.90
2729;DHT22;1372;47.956;7.830;2023-03-12T16:40:23;13.90;99.90
2729;DHT22;1372;47.956;7.830;2023-03-12T16:43:02;13.70;99.90
2729;DHT22;1372;47.956;7.830;2023-03-12T16:45:36;13.70;99.90
2729;DHT22;1372;47.956;7.830;2023-03-12T16:48:13;13.50;99.90
2729;DHT22;1372;47.956;7.830;2023-03-12T16:50:49;13.40;99.90
2729;DHT22;1372;47.956;7.830;2023-03-12T16:53:24;13.40;99.90
2729;DHT22;1372;47.956;7.830;2023-03-12T16:55:56;13.30;99.90
2729;DHT22;1372;47.956;7.830;2023-03-12T16:58:29;13.20;99.90
2729;DHT22;1372;47.956;7.830;2023-03-12T17:01:03;13.10;99.90
2729;DHT22;1372;47.956;7.830;2023-03-12T17:03:39;13.00;99.90
2729;DHT22;1372;47.956;7.830;2023-03-12T17:06:16;13.00;99.90
2729;DHT22;1372;47.956;7.830;2023-03-12T17:08:52;12.90;99.90
2729;DHT22;1372;47.956;7.830;2023-03-12T17:11:24;12.90;99.90
2729;DHT22;1372;47.956;7.830;2023-03-12T17:13:57;12.80;99.90
2729;DHT22;1372;47.956;7.830;2023-03-12T17:16:28;12.80;99.90
2729;DHT22;1372;47.956;7.830;2023-03-12T17:18:59;12.80;99.90
2729;DHT22;1372;47.956;7.830;2023-03-12T17:21:28;12.70;99.90
2729;DHT22;1372;47.956;7.830;2023-03-12T17:23:59;12.70;99.90